Terminal Aerodrome Forecast
Issued by NWS Caribou, ME

Home | Current Version | Previous Version | Text Only | Print | Product List | Glossary On
Versions: 1 2 3 4 5 6 7 8 9 10 11 12 13
000
FTUS41 KCAR 192320
TAFBGR
TAF
KBGR 192320Z 2000/2024 33005KT P6SM FEW250
     FM201200 13006KT P6SM FEW250
     FM201500 14010KT P6SM SCT250
     FM202200 13012KT 3SM -RA OVC050=

USA.gov is the U.S. government's official web portal to all federal, state and local government web resources and services.